»·PEaware :: SLO717 KLAS-KLAX

SLO717 :: KLAS-KLAX

FLIGHT INFORMATION

Flight Status: Arrived
Operator: Unknown
More flights by this operator :: More flights under this callsign
Pilot: Ty S. (2873)
Aircraft: ECLIPSE 500
(EA50)
More flights by this aircraft type
Origin: KLAS McCarran Intl
United States
Destination: KLAX Los Angeles Intl
United States
More flights between these airports :: More routes between these airports
Route: BOACH8 RIKII SHTNR ANJLL4
File this flight plan on PilotEdge
Remarks:
Altitude:
(Current/Filed)
26,000ft
Speed:
(Current/Filed)
400kts
Departed: 16-Feb-20 12:24 PM
Arrived: 16-Feb-20 01:11 PM
Distance/Time
Traveled:
205nm/0:47
Distance/Time
To Go:
Arrived

Flight Plot

Page will automatically refresh every two minutes.

Flight plan parsing failed; only flown route is shown


Map Options




Map Legend


Flown Route
Filed Route
Departure Airport
Arrival Airport
Navaid (VOR, NDB)
Fix

Horizontal Profiles

Position Reports

Time Latitude Longitude Heading Altitude Ground
Speed
16-Feb-20 11:35 36.080849 -115.171890 0 2184ft 0kts
16-Feb-20 11:36 36.080849 -115.171890 0 2184ft 0kts
16-Feb-20 11:37 36.080849 -115.171890 0 2184ft 0kts
16-Feb-20 11:38 36.080849 -115.171890 0 2184ft 0kts
16-Feb-20 11:39 36.080849 -115.171890 0 2184ft 0kts
16-Feb-20 11:40 36.080849 -115.171890 0 2184ft 0kts
16-Feb-20 11:41 36.080849 -115.171890 0 2184ft 0kts
16-Feb-20 11:42 36.080849 -115.171890 0 2184ft 0kts
16-Feb-20 11:43 36.080849 -115.171890 0 2184ft 0kts
16-Feb-20 11:44 36.080849 -115.171890 0 2184ft 0kts
16-Feb-20 11:45 36.080849 -115.171890 0 2184ft 0kts
16-Feb-20 11:46 36.080849 -115.171890 0 2184ft 0kts
16-Feb-20 11:47 36.080849 -115.171890 0 2184ft 0kts
16-Feb-20 11:48 36.080849 -115.171890 0 2184ft 0kts
16-Feb-20 11:49 36.080849 -115.171890 0 2184ft 0kts
16-Feb-20 11:50 36.080849 -115.171890 0 2184ft 0kts
16-Feb-20 11:51 36.080849 -115.171890 0 2184ft 0kts
16-Feb-20 11:52 36.080849 -115.171890 0 2184ft 0kts
16-Feb-20 11:53 36.080849 -115.171890 0 2184ft 0kts
16-Feb-20 11:54 36.080849 -115.171890 0 2184ft 0kts
16-Feb-20 11:55 36.080849 -115.171890 0 2184ft 0kts
16-Feb-20 11:56 36.080849 -115.171890 0 2184ft 0kts
16-Feb-20 11:57 36.080849 -115.171890 0 2184ft 0kts
16-Feb-20 11:58 36.080849 -115.171890 0 2184ft 0kts
16-Feb-20 11:59 36.080849 -115.171890 0 2184ft 0kts
16-Feb-20 12:00 36.080849 -115.171890 0 2184ft 0kts
16-Feb-20 12:01 36.080849 -115.171890 0 2184ft 0kts
16-Feb-20 12:02 36.080849 -115.171890 0 2184ft 0kts
16-Feb-20 12:03 36.080849 -115.171890 0 2184ft 0kts
16-Feb-20 12:04 36.080849 -115.171890 0 2184ft 0kts
16-Feb-20 12:05 36.080849 -115.171890 0 2184ft 0kts
16-Feb-20 12:06 36.080849 -115.171890 0 2184ft 0kts
16-Feb-20 12:07 36.080849 -115.171890 0 2184ft 0kts
16-Feb-20 12:08 36.080849 -115.171890 0 2184ft 0kts
16-Feb-20 12:09 36.080849 -115.171890 0 2184ft 0kts
16-Feb-20 12:10 36.080849 -115.171890 0 2184ft 0kts
16-Feb-20 12:11 36.081038 -115.170917 101 2184ft 6kts
16-Feb-20 12:12 36.082896 -115.168425 22 2184ft 17kts
16-Feb-20 12:13 36.087609 -115.165745 25 2184ft 20kts
16-Feb-20 12:14 36.092857 -115.162731 23 2184ft 20kts
16-Feb-20 12:15 36.098257 -115.159652 24 2184ft 21kts
16-Feb-20 12:16 36.099816 -115.157747 69 2184ft 0kts
16-Feb-20 12:17 36.099846 -115.157502 90 2184ft 0kts
16-Feb-20 12:18 36.099846 -115.157502 90 2184ft 0kts
16-Feb-20 12:19 36.099846 -115.157502 90 2184ft 0kts
16-Feb-20 12:20 36.099831 -115.157406 109 2184ft 5kts
16-Feb-20 12:21 36.099262 -115.156681 204 2184ft 0kts
16-Feb-20 12:22 36.099262 -115.156681 204 2184ft 0kts
16-Feb-20 12:23 36.079240 -115.168118 203 2791ft 132kts
16-Feb-20 12:24 36.038738 -115.191285 205 4521ft 194kts
16-Feb-20 12:25 35.998326 -115.240514 242 6417ft 235kts
16-Feb-20 12:26 35.953940 -115.305605 186 8457ft 258kts
16-Feb-20 12:27 35.887064 -115.312069 187 11241ft 244kts
16-Feb-20 12:28 35.815080 -115.310481 176 11964ft 289kts
16-Feb-20 12:29 35.731263 -115.300769 176 11959ft 306kts
16-Feb-20 12:30 35.646760 -115.295819 183 12864ft 309kts
16-Feb-20 12:31 35.559133 -115.299373 183 14220ft 318kts
16-Feb-20 12:32 35.474914 -115.323696 213 15416ft 319kts
16-Feb-20 12:33 35.398536 -115.379427 213 16533ft 324kts
16-Feb-20 12:34 35.320258 -115.436042 213 17504ft 329kts
16-Feb-20 12:35 35.240697 -115.493725 213 18101ft 342kts
16-Feb-20 12:36 35.160602 -115.551794 213 18104ft 332kts
16-Feb-20 12:37 35.090522 -115.622516 228 18124ft 327kts
16-Feb-20 12:38 35.029224 -115.700127 228 18154ft 326kts
16-Feb-20 12:39 34.966034 -115.779784 228 18145ft 328kts
16-Feb-20 12:40 34.902730 -115.860253 228 18149ft 330kts
16-Feb-20 12:41 34.842406 -115.937088 228 18154ft 331kts
16-Feb-20 12:42 34.778868 -116.018086 228 18154ft 331kts
16-Feb-20 12:43 34.715323 -116.099091 228 18154ft 332kts
16-Feb-20 12:44 34.651918 -116.179726 228 18153ft 328kts
16-Feb-20 12:45 34.588785 -116.258955 228 18149ft 327kts
16-Feb-20 12:46 34.525988 -116.338539 228 18154ft 326kts
16-Feb-20 12:47 34.463605 -116.417690 229 18155ft 327kts
16-Feb-20 12:48 34.406787 -116.502424 245 18181ft 323kts
16-Feb-20 12:49 34.366435 -116.599430 246 18217ft 323kts
16-Feb-20 12:50 34.327520 -116.694459 246 18237ft 332kts
16-Feb-20 12:51 34.286170 -116.796759 246 18237ft 339kts
16-Feb-20 12:52 34.244680 -116.899620 246 18233ft 342kts
16-Feb-20 12:53 34.205584 -117.004885 253 18174ft 345kts
16-Feb-20 12:54 34.175619 -117.114258 254 17317ft 334kts
16-Feb-20 12:55 34.146887 -117.219192 254 15822ft 324kts
16-Feb-20 12:56 34.118903 -117.320766 255 14332ft 315kts
16-Feb-20 12:57 34.092781 -117.420394 256 12838ft 307kts
16-Feb-20 12:58 34.066834 -117.515053 251 12129ft 291kts
16-Feb-20 12:59 34.035577 -117.603693 251 12129ft 292kts
16-Feb-20 13:00 34.005442 -117.696991 266 11821ft 307kts
16-Feb-20 13:01 33.995421 -117.801581 266 10818ft 312kts
16-Feb-20 13:02 33.985404 -117.904664 265 9349ft 306kts
16-Feb-20 13:03 33.975744 -118.002801 264 7198ft 272kts
16-Feb-20 13:04 33.967166 -118.089107 264 5255ft 253kts
16-Feb-20 13:05 33.958881 -118.171706 263 3707ft 249kts
16-Feb-20 13:06 33.950670 -118.252656 263 2306ft 211kts
16-Feb-20 13:07 33.945417 -118.303739 263 1441ft 104kts
16-Feb-20 13:08 33.942197 -118.335970 263 929ft 97kts
16-Feb-20 13:09 33.938864 -118.367785 261 422ft 94kts
16-Feb-20 13:10 33.936150 -118.393705 201 130ft 8kts
16-Feb-20 13:11 33.934137 -118.395169 272 130ft 9kts
16-Feb-20 13:12 33.933997 -118.395381 74 130ft 0kts
16-Feb-20 13:13 33.933997 -118.395381 74 130ft 0kts
16-Feb-20 13:14 33.933997 -118.395381 74 130ft 0kts
16-Feb-20 13:15 33.933997 -118.395381 74 130ft 0kts
16-Feb-20 13:16 33.933997 -118.395381 74 130ft 0kts
16-Feb-20 13:17 33.933997 -118.395381 74 130ft 0kts
16-Feb-20 13:18 33.933997 -118.395381 74 130ft 0kts

Navigation Log

Ident Type
Flight plan parsing failed, navigation log unavailable